createdAt,value
2023-03-01T00:00:34.339Z,371.00
2023-03-01T00:01:34.301Z,371.00
2023-03-01T00:02:34.301Z,371.00
2023-03-01T00:03:34.324Z,372.00
2023-03-01T00:04:34.223Z,373.00
2023-03-01T00:05:34.173Z,372.00
2023-03-01T00:06:34.254Z,371.00
2023-03-01T00:07:34.108Z,370.00
2023-03-01T00:08:34.096Z,371.00
2023-03-01T00:09:34.049Z,372.00
2023-03-01T00:10:34.018Z,372.00
2023-03-01T00:11:34.002Z,375.00
2023-03-01T00:12:33.965Z,378.00
2023-03-01T00:13:33.935Z,378.00
2023-03-01T00:14:33.907Z,377.00
2023-03-01T00:15:33.879Z,378.00
2023-03-01T00:16:34.050Z,377.00
2023-03-01T00:17:33.842Z,376.00
2023-03-01T00:18:33.822Z,374.00
2023-03-01T00:19:33.781Z,376.00
2023-03-01T00:20:33.761Z,376.00
2023-03-01T00:21:33.724Z,373.00
2023-03-01T00:22:33.691Z,372.00
2023-03-01T01:23:31.983Z,368.00
2023-03-01T01:25:31.903Z,367.00
2023-03-01T01:26:32.235Z,367.00
2023-03-01T01:27:31.852Z,366.00
2023-03-01T01:28:31.794Z,367.00
2023-03-01T01:29:31.777Z,365.00
2023-03-01T01:30:31.738Z,364.00
2023-03-01T01:31:31.869Z,365.00
2023-03-01T01:32:31.713Z,366.00
2023-03-01T01:33:31.640Z,364.00
2023-03-01T01:34:31.602Z,366.00
2023-03-01T01:35:31.589Z,366.00
2023-03-01T01:36:32.027Z,364.00
2023-03-01T01:37:31.507Z,363.00
2023-03-01T01:38:31.469Z,363.00
2023-03-01T01:39:31.442Z,366.00
2023-03-01T01:40:31.405Z,366.00
2023-03-01T01:41:31.399Z,364.00
2023-03-01T01:42:31.377Z,364.00
2023-03-01T01:43:31.329Z,364.00
2023-03-01T01:44:31.294Z,364.00
2023-03-01T01:45:31.260Z,365.00
2023-03-01T01:46:31.559Z,362.00
2023-03-01T01:47:31.196Z,362.00
2023-03-01T01:48:31.163Z,363.00
2023-03-01T01:49:31.135Z,365.00
2023-03-01T01:50:31.097Z,365.00
2023-03-01T01:51:31.065Z,365.00
2023-03-01T01:52:31.032Z,364.00
2023-03-01T01:53:30.999Z,364.00
2023-03-01T01:54:30.976Z,365.00
2023-03-01T01:55:30.944Z,364.00
2023-03-01T01:56:31.113Z,362.00
2023-03-01T01:57:30.883Z,362.00
2023-03-01T01:58:30.856Z,363.00
2023-03-01T01:59:30.875Z,363.00
2023-03-01T02:00:30.803Z,363.00
2023-03-01T02:01:30.788Z,363.00
2023-03-01T02:02:30.830Z,365.00
2023-03-01T02:03:30.846Z,363.00
2023-03-01T02:04:30.692Z,364.00
2023-03-01T02:05:30.653Z,365.00
2023-03-01T02:06:30.936Z,363.00
2023-03-01T02:07:30.595Z,363.00
2023-03-01T02:08:30.564Z,363.00
2023-03-01T02:09:30.532Z,362.00
2023-03-01T02:10:30.509Z,362.00
2023-03-01T02:11:30.483Z,361.00
2023-03-01T02:12:30.452Z,360.00
2023-03-01T02:13:30.418Z,360.00
2023-03-01T02:14:30.385Z,360.00
2023-03-01T02:15:30.364Z,361.00
2023-03-01T02:16:30.882Z,362.00
2023-03-01T02:17:30.299Z,360.00
2023-03-01T02:18:30.268Z,359.00
2023-03-01T02:19:30.236Z,357.00
2023-03-01T02:20:30.207Z,357.00
2023-03-01T02:21:30.177Z,355.00
2023-03-01T02:34:29.759Z,365.00
2023-03-01T02:35:29.721Z,363.00
2023-03-01T02:36:29.977Z,361.00
2023-03-01T02:37:29.655Z,361.00
2023-03-01T02:38:29.648Z,359.00
2023-03-01T02:39:29.593Z,359.00
2023-03-01T02:40:29.563Z,362.00
2023-03-01T02:41:29.525Z,361.00
2023-03-01T02:42:29.498Z,360.00
2023-03-01T02:43:29.462Z,363.00
2023-03-01T02:44:29.431Z,363.00
2023-03-01T02:45:29.409Z,363.00
2023-03-01T02:46:29.844Z,361.00
2023-03-01T02:47:29.353Z,360.00
2023-03-01T02:48:29.316Z,359.00
2023-03-01T02:49:29.288Z,359.00
2023-03-01T02:50:29.260Z,360.00
2023-03-01T02:51:29.231Z,359.00
2023-03-01T02:52:29.207Z,359.00
2023-03-01T02:53:29.185Z,360.00
2023-03-01T02:54:29.142Z,361.00
2023-03-01T02:55:29.108Z,361.00
2023-03-01T02:56:29.342Z,359.00
2023-03-01T02:57:29.050Z,359.00
2023-03-01T02:58:29.055Z,359.00
2023-03-01T02:59:28.994Z,360.00
2023-03-01T03:00:29.002Z,359.00
2023-03-01T03:01:28.937Z,358.00
2023-03-01T03:02:28.907Z,357.00
2023-03-01T03:03:28.894Z,358.00
2023-03-01T03:04:28.838Z,358.00
2023-03-01T03:05:28.813Z,359.00
2023-03-01T03:06:28.967Z,361.00
2023-03-01T03:07:28.741Z,358.00
2023-03-01T03:08:28.750Z,360.00
2023-03-01T03:09:28.685Z,360.00
2023-03-01T03:10:28.648Z,358.00
2023-03-01T03:11:28.617Z,357.00
2023-03-01T03:12:28.592Z,355.00
2023-03-01T03:13:28.544Z,355.00
2023-03-01T03:14:28.510Z,353.00
2023-03-01T03:15:28.490Z,353.00
2023-03-01T03:16:28.967Z,353.00
2023-03-01T03:17:28.444Z,353.00
2023-03-01T03:18:28.396Z,351.00
2023-03-01T03:19:28.359Z,351.00
2023-03-01T03:20:28.340Z,352.00
2023-03-01T03:21:28.312Z,353.00
2023-03-01T03:22:28.300Z,351.00
2023-03-01T03:23:28.259Z,351.00
2023-03-01T03:24:28.222Z,352.00
2023-03-01T03:25:28.210Z,353.00
2023-03-01T03:26:28.357Z,352.00
2023-03-01T03:27:28.134Z,352.00
2023-03-01T03:28:28.108Z,349.00
2023-03-01T03:29:28.072Z,349.00
2023-03-01T03:30:28.057Z,348.00
2023-03-01T03:31:28.101Z,348.00
2023-03-01T03:32:28.057Z,349.00
2023-03-01T03:33:28.018Z,349.00
2023-03-01T03:34:27.906Z,350.00
2023-03-01T03:35:27.876Z,350.00
2023-03-01T03:36:28.020Z,349.00
2023-03-01T03:37:27.813Z,350.00
2023-03-01T03:38:27.782Z,350.00
2023-03-01T03:39:27.748Z,350.00
2023-03-01T03:40:27.725Z,350.00
2023-03-01T03:41:27.696Z,353.00
2023-03-01T03:42:27.659Z,354.00
2023-03-01T03:43:27.616Z,354.00
2023-03-01T03:44:27.591Z,352.00
2023-03-01T03:45:27.583Z,353.00
2023-03-01T03:46:27.521Z,356.00
2023-03-01T03:47:27.487Z,354.00
2023-03-01T03:48:27.474Z,354.00
2023-03-01T03:49:27.425Z,356.00
2023-03-01T03:50:27.388Z,355.00
2023-03-01T03:51:27.344Z,352.00
2023-03-01T03:52:27.320Z,352.00
2023-03-01T03:53:27.298Z,348.00
2023-03-01T03:54:27.259Z,347.00
2023-03-01T03:55:27.226Z,347.00
2023-03-01T03:56:28.771Z,347.00
2023-03-01T03:57:27.163Z,351.00
2023-03-01T03:58:27.143Z,352.00
2023-03-01T03:59:27.105Z,349.00
2023-03-01T04:00:27.061Z,348.00
2023-03-01T04:01:27.047Z,348.00
2023-03-01T04:02:27.021Z,348.00
2023-03-01T04:03:27.008Z,349.00
2023-03-01T04:04:26.946Z,348.00
2023-03-01T04:05:26.917Z,350.00
2023-03-01T04:06:26.885Z,349.00
2023-03-01T04:07:26.856Z,350.00
2023-03-01T04:08:26.828Z,352.00
2023-03-01T04:09:26.795Z,349.00
2023-03-01T04:10:26.768Z,351.00
2023-03-01T04:11:26.735Z,351.00
2023-03-01T04:12:26.713Z,350.00
2023-03-01T04:13:26.688Z,349.00
2023-03-01T04:14:26.658Z,350.00
2023-03-01T04:15:26.621Z,347.00
2023-03-01T04:16:26.652Z,346.00
2023-03-01T04:17:26.559Z,344.00
2023-03-01T04:18:26.530Z,346.00
2023-03-01T04:19:26.499Z,346.00
2023-03-01T04:20:26.508Z,346.00
2023-03-01T04:21:26.465Z,345.00
2023-03-01T04:22:26.401Z,344.00
2023-03-01T04:23:26.369Z,340.00
2023-03-01T04:24:26.344Z,341.00
2023-03-01T04:25:26.310Z,340.00
2023-03-01T04:26:26.279Z,339.00
2023-03-01T04:27:26.248Z,340.00
2023-03-01T04:28:26.222Z,338.00
2023-03-01T04:29:26.205Z,338.00
2023-03-01T04:30:26.182Z,338.00
2023-03-01T04:31:26.230Z,339.00
2023-03-01T04:32:26.131Z,344.00
2023-03-01T04:33:26.085Z,342.00
2023-03-01T04:34:26.045Z,342.00
2023-03-01T04:35:26.185Z,343.00
2023-03-01T04:36:26.123Z,342.00
2023-03-01T04:37:25.949Z,341.00
2023-03-01T04:38:25.924Z,340.00
2023-03-01T04:39:25.914Z,341.00
2023-03-01T04:40:25.879Z,341.00
2023-03-01T04:41:25.847Z,344.00
2023-03-01T04:42:25.817Z,345.00
2023-03-01T04:43:25.786Z,343.00
2023-03-01T04:44:25.764Z,343.00
2023-03-01T04:45:25.731Z,345.00
2023-03-01T04:46:25.760Z,348.00
2023-03-01T04:47:25.653Z,348.00
2023-03-01T04:48:25.628Z,347.00
2023-03-01T04:49:25.589Z,343.00
2023-03-01T04:50:25.561Z,339.00
2023-03-01T04:51:25.536Z,340.00
2023-03-01T04:52:25.505Z,340.00
2023-03-01T04:53:25.478Z,340.00
2023-03-01T04:54:25.444Z,340.00
2023-03-01T04:55:25.461Z,342.00
2023-03-01T04:56:25.377Z,341.00
2023-03-01T04:57:25.366Z,340.00
2023-03-01T04:58:25.325Z,340.00
2023-03-01T04:59:25.294Z,339.00
2023-03-01T05:00:25.267Z,337.00
2023-03-01T05:01:25.237Z,337.00
2023-03-01T05:02:25.270Z,340.00
2023-03-01T05:03:25.179Z,339.00
2023-03-01T05:04:25.181Z,337.00
2023-03-01T05:05:25.141Z,339.00
2023-03-01T05:06:25.094Z,338.00
2023-03-01T05:07:25.082Z,337.00
2023-03-01T05:08:25.048Z,338.00
2023-03-01T05:09:25.005Z,337.00
2023-03-01T05:10:24.980Z,339.00
2023-03-01T05:11:24.949Z,340.00
2023-03-01T05:12:24.964Z,339.00
2023-03-01T05:13:24.877Z,338.00
2023-03-01T05:14:24.852Z,337.00
2023-03-01T05:15:24.861Z,335.00
2023-03-01T05:16:24.796Z,337.00
2023-03-01T05:17:24.776Z,337.00
2023-03-01T05:18:24.746Z,337.00
2023-03-01T05:19:24.711Z,337.00
2023-03-01T05:20:24.756Z,338.00
2023-03-01T05:21:24.663Z,336.00
2023-03-01T05:22:24.637Z,338.00
2023-03-01T05:23:24.616Z,335.00
2023-03-01T05:24:24.582Z,334.00
2023-03-01T05:25:24.672Z,333.00
2023-03-01T05:26:28.716Z,335.00
2023-03-01T05:27:24.489Z,336.00
2023-03-01T05:28:24.456Z,337.00
2023-03-01T05:29:24.440Z,337.00
2023-03-01T05:30:24.404Z,339.00
2023-03-01T05:31:24.395Z,339.00
2023-03-01T05:32:24.380Z,336.00
2023-03-01T05:33:24.327Z,334.00
2023-03-01T05:34:24.293Z,337.00
2023-03-01T05:35:24.333Z,336.00
2023-03-01T05:36:24.244Z,336.00
2023-03-01T05:37:24.212Z,336.00
2023-03-01T05:38:24.197Z,339.00
2023-03-01T05:39:24.167Z,338.00
2023-03-01T05:40:24.151Z,337.00
2023-03-01T05:41:24.131Z,338.00
2023-03-01T05:42:24.100Z,338.00
2023-03-01T05:43:24.065Z,337.00
2023-03-01T05:44:24.036Z,335.00
2023-03-01T05:45:24.007Z,337.00
2023-03-01T05:46:24.004Z,338.00
2023-03-01T05:47:23.946Z,336.00
2023-03-01T05:48:23.922Z,336.00
2023-03-01T05:49:23.885Z,336.00
2023-03-01T05:50:23.870Z,336.00
2023-03-01T05:51:23.836Z,339.00
2023-03-01T05:52:23.815Z,338.00
2023-03-01T05:53:23.781Z,339.00
2023-03-01T05:54:23.760Z,338.00
2023-03-01T05:55:23.723Z,338.00
2023-03-01T05:56:23.706Z,336.00
2023-03-01T05:57:23.680Z,337.00
2023-03-01T05:58:23.654Z,337.00
2023-03-01T05:59:23.638Z,335.00
2023-03-01T06:00:23.596Z,335.00
2023-03-01T06:01:23.569Z,335.00
2023-03-01T06:02:23.575Z,333.00
2023-03-01T06:03:23.516Z,331.00
2023-03-01T06:04:23.511Z,331.00
2023-03-01T06:05:23.536Z,331.00
2023-03-01T06:06:23.467Z,331.00
2023-03-01T06:07:23.434Z,327.00
2023-03-01T06:08:23.405Z,328.00
2023-03-01T06:09:23.386Z,329.00
2023-03-01T06:10:23.353Z,329.00
2023-03-01T06:11:23.336Z,331.00
2023-03-01T06:12:23.319Z,332.00
2023-03-01T06:13:23.278Z,331.00
2023-03-01T06:14:23.266Z,333.00
2023-03-01T06:15:23.246Z,335.00
2023-03-01T06:16:23.204Z,337.00
2023-03-01T06:17:23.261Z,339.00
2023-03-01T06:18:23.155Z,342.00
2023-03-01T06:19:23.137Z,340.00
2023-03-01T06:20:23.103Z,341.00
2023-03-01T06:21:23.085Z,342.00
2023-03-01T06:22:23.064Z,340.00
2023-03-01T06:23:23.037Z,338.00
2023-03-01T06:24:23.018Z,339.00
2023-03-01T06:25:22.984Z,338.00
2023-03-01T06:26:22.971Z,365.00
2023-03-01T06:27:22.945Z,371.00
2023-03-01T06:28:22.922Z,376.00
2023-03-01T06:29:22.920Z,405.00
2023-03-01T06:30:22.870Z,415.00
2023-03-01T06:31:22.885Z,426.00
2023-03-01T06:32:22.888Z,435.00
2023-03-01T06:33:22.772Z,447.00
2023-03-01T06:34:22.780Z,467.00
2023-03-01T06:35:22.734Z,474.00
2023-03-01T06:36:22.695Z,483.00
2023-03-01T06:37:22.657Z,488.00
2023-03-01T06:38:22.690Z,491.00
2023-03-01T06:39:22.602Z,532.00
2023-03-01T06:40:22.591Z,553.00
2023-03-01T06:41:22.533Z,593.00
2023-03-01T06:42:22.511Z,616.00
2023-03-01T06:43:22.477Z,640.00
2023-03-01T06:44:22.456Z,667.00
2023-03-01T06:45:22.422Z,692.00
2023-03-01T06:46:22.419Z,709.00
2023-03-01T06:47:22.375Z,737.00
2023-03-01T06:48:22.329Z,764.00
2023-03-01T06:49:22.340Z,818.00
2023-03-01T06:50:22.392Z,821.00
2023-03-01T06:51:22.257Z,842.00
2023-03-01T06:52:22.272Z,841.00
2023-03-01T06:53:22.196Z,841.00
2023-03-01T06:54:22.168Z,837.00
2023-03-01T06:55:22.116Z,841.00
2023-03-01T06:56:22.184Z,887.00
2023-03-01T06:57:22.030Z,889.00
2023-03-01T06:58:22.090Z,907.00
2023-03-01T06:59:21.972Z,918.00
2023-03-01T07:00:21.930Z,936.00
2023-03-01T07:01:22.040Z,950.00
2023-03-01T07:02:21.866Z,984.00
2023-03-01T07:03:21.834Z,1003.00
2023-03-01T07:04:21.795Z,1085.00
2023-03-01T07:05:21.788Z,1074.00
2023-03-01T07:06:21.727Z,1081.00
2023-03-01T07:07:21.690Z,1088.00
2023-03-01T07:08:21.655Z,1094.00
2023-03-01T07:09:21.627Z,1099.00
2023-03-01T07:10:21.611Z,1101.00
2023-03-01T07:11:21.557Z,1130.00
2023-03-01T07:12:21.524Z,1181.00
2023-03-01T07:13:21.492Z,1181.00
2023-03-01T07:14:21.510Z,1178.00
2023-03-01T07:15:21.406Z,1175.00
2023-03-01T07:16:21.424Z,1176.00
2023-03-01T07:17:21.345Z,1187.00
2023-03-01T07:18:21.320Z,1241.00
2023-03-01T07:19:21.294Z,1262.00
2023-03-01T07:20:21.254Z,1261.00
2023-03-01T07:21:21.210Z,1264.00
2023-03-01T08:00:19.779Z,1697.00
2023-03-01T08:01:19.795Z,1700.00
2023-03-01T08:02:19.726Z,1698.00
2023-03-01T08:03:19.719Z,1709.00
2023-03-01T08:17:19.084Z,1781.00
2023-03-01T08:18:19.043Z,1793.00
2023-03-01T08:19:19.024Z,1788.00
2023-03-01T08:20:20.066Z,1792.00
2023-03-01T09:04:17.056Z,1718.00
2023-03-01T09:05:18.709Z,1708.00
2023-03-01T09:06:16.969Z,1713.00
2023-03-01T09:07:16.937Z,1716.00
2023-03-01T09:08:16.952Z,1718.00
2023-03-01T09:09:16.845Z,1722.00
2023-03-01T09:10:16.806Z,1718.00
2023-03-01T09:11:16.754Z,1722.00
2023-03-01T09:12:16.734Z,1735.00
2023-03-01T09:13:16.676Z,1750.00
2023-03-01T09:14:16.641Z,1772.00
2023-03-01T09:15:16.589Z,1770.00
2023-03-01T09:16:16.597Z,1764.00
2023-03-01T09:17:16.505Z,1767.00
2023-03-01T09:18:16.477Z,1775.00
2023-03-01T09:19:16.415Z,1776.00
2023-03-01T09:20:16.381Z,1772.00
2023-03-01T09:21:16.382Z,1776.00
2023-03-01T09:22:16.294Z,1785.00
2023-03-01T09:23:16.264Z,1791.00
2023-03-01T09:24:16.301Z,1843.00
2023-03-01T09:25:16.179Z,1831.00
2023-03-01T09:26:16.147Z,1836.00
2023-03-01T09:27:16.096Z,1914.00
2023-03-01T09:28:29.201Z,1969.00
2023-03-01T09:29:17.021Z,1971.00
2023-03-01T09:30:16.076Z,1979.00
2023-03-01T09:31:15.988Z,1974.00
2023-03-01T09:32:15.998Z,1978.00
2023-03-01T09:33:15.868Z,1928.00
2023-03-01T09:34:15.826Z,1888.00
2023-03-01T09:35:15.767Z,1773.00
2023-03-01T09:36:15.717Z,1740.00
2023-03-01T09:37:15.669Z,1561.00
2023-03-01T09:38:15.636Z,1447.00
2023-03-01T09:39:15.601Z,1353.00
2023-03-01T09:40:15.605Z,1268.00
2023-03-01T09:41:15.525Z,1244.00
2023-03-01T09:42:15.565Z,1214.00
2023-03-01T09:43:15.457Z,1205.00
2023-03-01T09:44:16.097Z,1175.00
2023-03-01T09:45:15.370Z,1098.00
2023-03-01T09:46:15.353Z,1081.00
2023-03-01T09:47:15.298Z,1037.00
2023-03-01T09:48:15.250Z,954.00
2023-03-01T09:49:15.209Z,946.00
2023-03-01T09:50:15.171Z,928.00
2023-03-01T09:51:15.133Z,909.00
2023-03-01T09:52:15.084Z,806.00
2023-03-01T09:53:15.101Z,783.00
2023-03-01T09:54:14.998Z,773.00
2023-03-01T09:55:14.978Z,765.00
2023-03-01T09:56:15.078Z,752.00
2023-03-01T09:57:14.877Z,733.00
2023-03-01T09:58:14.837Z,731.00
2023-03-01T09:59:14.805Z,731.00
2023-03-01T10:00:14.753Z,731.00
2023-03-01T10:01:14.728Z,722.00
2023-03-01T10:02:14.679Z,681.00
2023-03-01T10:03:14.645Z,681.00
2023-03-01T10:04:14.725Z,688.00
2023-03-01T10:05:14.635Z,690.00
2023-03-01T10:06:27.593Z,690.00
2023-03-01T10:07:15.501Z,690.00
2023-03-01T10:08:14.447Z,688.00
2023-03-01T10:09:14.416Z,683.00
2023-03-01T10:10:14.381Z,681.00
2023-03-01T10:11:14.344Z,681.00
2023-03-01T10:12:14.293Z,679.00
2023-03-01T10:13:14.260Z,676.00
2023-03-01T10:14:14.267Z,674.00
2023-03-01T10:15:14.186Z,673.00
2023-03-01T10:16:14.202Z,674.00
2023-03-01T10:17:14.094Z,674.00
2023-03-01T10:18:14.064Z,675.00
2023-03-01T10:19:14.011Z,674.00
2023-03-01T10:20:13.966Z,669.00
2023-03-01T10:21:13.933Z,668.00
2023-03-01T10:22:13.923Z,669.00
2023-03-01T10:23:13.858Z,669.00
2023-03-01T10:24:13.812Z,665.00
2023-03-01T10:25:13.783Z,664.00
2023-03-01T10:26:13.786Z,663.00
2023-03-01T10:27:13.694Z,661.00
2023-03-01T10:28:13.680Z,663.00
2023-03-01T10:29:13.626Z,659.00
2023-03-01T10:30:13.602Z,656.00
2023-03-01T10:31:13.600Z,655.00
2023-03-01T10:32:13.623Z,657.00
2023-03-01T10:33:13.497Z,657.00
2023-03-01T10:34:13.456Z,655.00
2023-03-01T10:35:13.411Z,655.00
2023-03-01T10:36:13.373Z,654.00
2023-03-01T10:37:13.334Z,654.00
2023-03-01T10:38:13.341Z,654.00
2023-03-01T10:39:13.262Z,654.00
2023-03-01T10:40:13.228Z,654.00
2023-03-01T10:41:13.252Z,657.00
2023-03-01T10:42:13.170Z,790.00
2023-03-01T10:43:13.131Z,805.00
2023-03-01T10:44:13.066Z,805.00
2023-03-01T10:45:13.036Z,818.00
2023-03-01T10:46:13.164Z,827.00
2023-03-01T10:47:12.963Z,831.00
2023-03-01T10:48:12.905Z,834.00
2023-03-01T10:49:12.875Z,836.00
2023-03-01T10:50:12.839Z,838.00
2023-03-01T10:51:12.801Z,844.00
2023-03-01T10:52:12.748Z,897.00
2023-03-01T10:53:12.725Z,921.00
2023-03-01T10:54:12.673Z,929.00
2023-03-01T10:55:12.627Z,938.00
2023-03-01T10:56:12.573Z,953.00
2023-03-01T10:57:12.539Z,984.00
2023-03-01T10:58:12.491Z,1003.00
2023-03-01T10:59:12.452Z,1022.00
2023-03-01T11:00:12.413Z,1036.00
2023-03-01T11:01:12.423Z,1047.00
2023-03-01T11:22:11.599Z,1379.00
2023-03-01T12:38:08.645Z,810.00
2023-03-01T13:23:07.031Z,791.00
2023-03-01T13:24:06.974Z,788.00
2023-03-01T13:25:06.965Z,784.00
2023-03-01T13:26:06.938Z,782.00
2023-03-01T13:27:06.903Z,780.00
2023-03-01T13:28:06.840Z,779.00
2023-03-01T13:29:06.818Z,779.00
2023-03-01T13:30:06.800Z,780.00
2023-03-01T13:31:06.789Z,781.00
2023-03-01T13:32:06.760Z,779.00
2023-03-01T13:33:06.719Z,780.00
2023-03-01T13:34:06.672Z,776.00
2023-03-01T13:35:06.602Z,779.00
2023-03-01T13:37:06.531Z,780.00
2023-03-01T13:39:06.471Z,783.00
2023-03-01T13:41:06.384Z,784.00
2023-03-01T13:42:06.340Z,783.00
2023-03-01T13:43:06.525Z,781.00
2023-03-01T13:44:06.266Z,780.00
2023-03-01T13:45:06.234Z,779.00
2023-03-01T13:46:06.256Z,775.00
2023-03-01T13:47:06.204Z,776.00
2023-03-01T13:48:06.114Z,777.00
2023-03-01T13:49:06.100Z,774.00
2023-03-01T13:51:06.007Z,779.00
2023-03-01T13:52:05.973Z,780.00
2023-03-01T13:53:05.938Z,779.00
2023-03-01T13:54:05.901Z,779.00
2023-03-01T13:55:05.867Z,777.00
2023-03-01T13:58:05.755Z,771.00
2023-03-01T13:59:05.704Z,772.00
2023-03-01T14:00:05.814Z,772.00
2023-03-01T14:01:05.759Z,771.00
2023-03-01T14:02:05.625Z,772.00
2023-03-01T14:05:05.496Z,776.00
2023-03-01T14:06:14.253Z,774.00
2023-03-01T14:07:06.406Z,773.00
2023-03-01T14:08:05.362Z,771.00
2023-03-01T14:09:05.318Z,768.00
2023-03-01T14:10:05.296Z,765.00
2023-03-01T14:11:05.245Z,767.00
2023-03-01T14:12:05.210Z,765.00
2023-03-01T14:13:15.651Z,764.00
2023-03-01T14:14:06.121Z,764.00
2023-03-01T14:15:05.083Z,765.00
2023-03-01T14:16:05.087Z,770.00
2023-03-01T14:17:04.995Z,766.00
2023-03-01T14:18:04.971Z,767.00
2023-03-01T14:19:04.935Z,768.00
2023-03-01T14:20:04.888Z,772.00
2023-03-01T14:21:04.833Z,771.00
2023-03-01T14:22:05.298Z,770.00
2023-03-01T14:23:04.834Z,774.00
2023-03-01T14:24:04.730Z,769.00
2023-03-01T14:25:04.707Z,768.00
2023-03-01T14:26:04.662Z,769.00
2023-03-01T14:27:04.603Z,766.00
2023-03-01T14:28:05.925Z,764.00
2023-03-01T14:29:04.528Z,765.00
2023-03-01T14:30:04.488Z,765.00
2023-03-01T14:31:04.528Z,764.00
2023-03-01T14:32:04.454Z,766.00
2023-03-01T14:33:04.395Z,765.00
2023-03-01T14:34:04.365Z,758.00
2023-03-01T14:35:04.406Z,758.00
2023-03-01T14:36:04.326Z,761.00
2023-03-01T14:37:04.236Z,761.00
2023-03-01T14:38:04.245Z,763.00
2023-03-01T14:39:04.173Z,767.00
2023-03-01T14:40:04.152Z,767.00
2023-03-01T14:41:06.617Z,765.00
2023-03-01T14:42:14.084Z,762.00
2023-03-01T14:44:04.206Z,759.00
2023-03-01T14:45:04.172Z,760.00
2023-03-01T14:46:04.190Z,760.00
2023-03-01T14:47:04.102Z,761.00
2023-03-01T14:48:04.060Z,762.00
2023-03-01T14:49:04.017Z,762.00
2023-03-01T14:50:03.996Z,762.00
2023-03-01T14:51:03.957Z,763.00
2023-03-01T14:52:03.928Z,761.00
2023-03-01T14:53:03.903Z,759.00
2023-03-01T14:54:03.864Z,758.00
2023-03-01T14:55:03.824Z,756.00
2023-03-01T14:56:03.802Z,752.00
2023-03-01T14:57:03.759Z,750.00
2023-03-01T14:58:03.724Z,748.00
2023-03-01T14:59:03.684Z,746.00
2023-03-01T15:00:03.809Z,749.00
2023-03-01T15:01:03.662Z,751.00
2023-03-01T15:02:03.577Z,750.00
2023-03-01T15:03:03.533Z,750.00
2023-03-01T15:04:03.583Z,750.00
2023-03-01T15:05:03.493Z,748.00
2023-03-01T15:06:03.441Z,748.00
2023-03-01T15:07:03.390Z,749.00
2023-03-01T15:08:03.349Z,751.00
2023-03-01T15:09:03.308Z,751.00
2023-03-01T15:10:03.369Z,752.00
2023-03-01T15:11:03.249Z,750.00
2023-03-01T15:12:03.205Z,749.00
2023-03-01T15:13:03.170Z,748.00
2023-03-01T15:14:03.129Z,746.00
2023-03-01T15:15:04.782Z,747.00
2023-03-01T15:16:03.135Z,744.00
2023-03-01T15:17:03.032Z,742.00
2023-03-01T15:18:03.001Z,743.00
2023-03-01T15:19:03.000Z,744.00
2023-03-01T15:20:03.049Z,742.00
2023-03-01T15:21:02.882Z,740.00
2023-03-01T15:22:02.916Z,738.00
2023-03-01T15:23:02.815Z,741.00
2023-03-01T15:24:02.782Z,742.00
2023-03-01T15:25:02.734Z,741.00
2023-03-01T15:26:02.712Z,739.00
2023-03-01T15:27:02.730Z,736.00
2023-03-01T15:28:02.642Z,735.00
2023-03-01T15:29:02.601Z,735.00
2023-03-01T15:30:02.563Z,737.00
2023-03-01T15:31:02.556Z,736.00
2023-03-01T15:32:02.542Z,737.00
2023-03-01T15:33:02.441Z,738.00
2023-03-01T15:34:02.415Z,736.00
2023-03-01T15:35:02.379Z,737.00
2023-03-01T15:36:02.431Z,737.00
2023-03-01T16:53:59.690Z,693.00
2023-03-01T16:54:59.653Z,696.00
2023-03-01T16:56:59.569Z,698.00
2023-03-01T16:57:59.530Z,702.00
2023-03-01T16:59:00.375Z,701.00
2023-03-01T16:59:59.484Z,700.00
2023-03-01T17:00:59.424Z,702.00
2023-03-01T17:01:59.382Z,703.00
2023-03-01T17:02:59.427Z,702.00
2023-03-01T17:03:59.319Z,703.00
2023-03-01T17:04:59.288Z,702.00
2023-03-01T17:05:59.240Z,700.00
2023-03-01T17:08:59.124Z,701.00
2023-03-01T17:09:59.084Z,700.00
2023-03-01T17:23:58.568Z,691.00
2023-03-01T17:24:58.514Z,690.00
2023-03-01T17:25:58.477Z,688.00
2023-03-01T17:30:58.316Z,684.00
2023-03-01T17:31:58.450Z,687.00
2023-03-01T17:36:58.107Z,683.00
2023-03-01T17:38:58.025Z,684.00
2023-03-01T17:39:57.983Z,687.00
2023-03-01T17:40:57.953Z,684.00
2023-03-01T17:41:57.909Z,682.00
2023-03-01T17:42:57.877Z,681.00
2023-03-01T17:43:57.897Z,683.00
2023-03-01T17:44:57.792Z,683.00
2023-03-01T17:45:57.844Z,683.00
2023-03-01T17:46:57.729Z,686.00
2023-03-01T17:47:57.691Z,683.00
2023-03-01T17:48:57.666Z,683.00
2023-03-01T17:49:57.622Z,680.00
2023-03-01T17:50:57.585Z,679.00
2023-03-01T17:51:57.554Z,680.00
2023-03-01T17:52:57.513Z,678.00
2023-03-01T17:53:57.491Z,675.00
2023-03-01T17:54:57.450Z,671.00
2023-03-01T17:55:57.418Z,668.00
2023-03-01T17:56:57.385Z,667.00
2023-03-01T17:57:57.364Z,667.00
2023-03-01T17:58:57.338Z,668.00
2023-03-01T17:59:57.296Z,667.00
2023-03-01T18:00:57.289Z,666.00
2023-03-01T18:01:57.275Z,666.00
2023-03-01T18:02:57.234Z,667.00
2023-03-01T18:03:57.173Z,667.00
2023-03-01T18:04:57.157Z,668.00
2023-03-01T18:05:58.813Z,665.00
2023-03-01T18:06:57.102Z,669.00
2023-03-01T18:07:57.061Z,668.00
2023-03-01T18:08:57.045Z,670.00
2023-03-01T18:09:57.025Z,665.00
2023-03-01T18:10:56.964Z,663.00
2023-03-01T18:11:56.932Z,664.00
2023-03-01T18:12:56.898Z,664.00
2023-03-01T18:14:56.840Z,665.00
2023-03-01T18:15:56.807Z,663.00
2023-03-01T18:16:56.819Z,661.00
2023-03-01T18:17:56.749Z,662.00
2023-03-01T18:18:56.739Z,660.00
2023-03-01T18:19:56.704Z,658.00
2023-03-01T18:20:56.670Z,658.00
2023-03-01T18:21:56.637Z,657.00
2023-03-01T18:22:56.612Z,656.00
2023-03-01T18:23:56.577Z,656.00
2023-03-01T18:24:56.557Z,655.00
2023-03-01T18:25:56.509Z,653.00
2023-03-01T18:26:56.493Z,653.00
2023-03-01T18:27:56.452Z,654.00
2023-03-01T18:28:56.413Z,654.00
2023-03-01T18:29:56.402Z,651.00
2023-03-01T18:30:56.442Z,648.00
2023-03-01T18:31:56.349Z,650.00
2023-03-01T18:32:56.372Z,652.00
2023-03-01T18:33:56.285Z,651.00
2023-03-01T18:34:56.241Z,646.00
2023-03-01T18:35:56.388Z,645.00
2023-03-01T18:37:08.639Z,641.00
2023-03-01T18:38:56.160Z,640.00
2023-03-01T18:39:56.097Z,639.00
2023-03-01T18:40:56.083Z,641.00
2023-03-01T18:41:56.042Z,642.00
2023-03-01T18:42:56.026Z,644.00
2023-03-01T18:43:56.046Z,642.00
2023-03-01T18:46:55.920Z,642.00
2023-03-01T18:49:55.803Z,637.00
2023-03-01T18:56:55.569Z,634.00
2023-03-01T18:57:55.537Z,633.00
2023-03-01T18:58:55.520Z,632.00
2023-03-01T18:59:55.501Z,630.00
2023-03-01T19:00:55.469Z,631.00
2023-03-01T19:01:55.456Z,627.00
2023-03-01T19:02:55.476Z,626.00
2023-03-01T19:03:55.428Z,624.00
2023-03-01T19:04:55.366Z,623.00
2023-03-01T19:05:55.318Z,623.00
2023-03-01T19:06:55.286Z,627.00
2023-03-01T19:07:55.260Z,626.00
2023-03-01T19:08:55.228Z,630.00
2023-03-01T19:09:55.280Z,628.00
2023-03-01T19:10:55.181Z,630.00
2023-03-01T19:11:55.143Z,627.00
2023-03-01T19:12:55.110Z,627.00
2023-03-01T19:13:55.081Z,633.00
2023-03-01T19:14:55.062Z,631.00
2023-03-01T19:15:55.033Z,634.00
2023-03-01T19:16:54.991Z,627.00
2023-03-01T19:17:54.962Z,625.00
2023-03-01T19:18:54.929Z,624.00
2023-03-01T19:19:54.899Z,624.00
2023-03-01T19:20:58.928Z,623.00
2023-03-01T19:22:05.286Z,620.00
2023-03-01T19:22:55.813Z,618.00
2023-03-01T19:23:54.783Z,621.00
2023-03-01T19:24:54.749Z,619.00
2023-03-01T19:25:54.726Z,618.00
2023-03-01T19:26:54.684Z,617.00
2023-03-01T19:27:54.648Z,616.00
2023-03-01T19:28:54.618Z,616.00
2023-03-01T19:29:54.585Z,615.00
2023-03-01T19:30:54.582Z,617.00
2023-03-01T19:31:54.626Z,617.00
2023-03-01T19:32:54.503Z,618.00
2023-03-01T19:33:59.554Z,619.00
2023-03-01T19:34:55.457Z,617.00